Decoded Metar for LFRJ (LANDIVISIAU in FRANCE) (IATA:N/A) | Meteo·Mobile Aviation Weather
aviador You're here:

LFRJ Decoded Metar

LANDIVISIAU in FRANCE
Report Time2019-02-23 01:00:00
UTC Time2019-02-23 01:11:17
Flight Rules vfr VFR
Wind150° at 09 kt
W.Decomp.*RWY 08: 2.8 kt HW 8.6 kt RCW
W.Rank150° ranks 28
Current wind is above 150° avg. (6.5)
Visibility9999 m
Phenomena:N/A
Clouds:N/A
Expected CloudBase > 2,000 ft AGL from Temp-Dew spread
CeilingNone
Temp10°C (ISA -4)
Dew Point05°C (71% RH)
AAT5.6°C
QNH1029 hPa
Density Alt-551 ft
Elevation377 ft
Report Wrong Elevation
Raw Report
METAR LFRJ 230100Z AUTO 15009KT CAVOK 10/05 Q1029=

Extra information for LFRJ:More info

Metar Taf Metar & Taf Last 4 Metars F.Rules Stats Wind Profile Meteogram Temp Stats Airport Information Weather charts Add Link Nearby VenuesMetar ALERT Operation Metar Decoded Social comments